createdAt,value
2023-05-20T00:02:29.485Z,11.1
2023-05-20T00:08:39.896Z,11.1
2023-05-20T00:13:36.449Z,11.2
2023-05-20T00:18:33.112Z,11.3
2023-05-20T00:23:29.466Z,11.2
2023-05-20T00:29:40.253Z,11.2
2023-05-20T00:34:37.891Z,11.3
2023-05-20T00:39:33.186Z,11.1
2023-05-20T00:44:29.876Z,11.1
2023-05-20T00:50:40.439Z,11.1
2023-05-20T00:55:36.919Z,11
2023-05-20T01:00:33.488Z,11
2023-05-20T01:05:30.018Z,10.9
2023-05-20T01:11:40.624Z,10.9
2023-05-20T01:16:37.344Z,10.9
2023-05-20T01:21:33.704Z,10.8
2023-05-20T01:26:30.458Z,10.7
2023-05-20T01:32:40.941Z,10.7
2023-05-20T01:37:37.446Z,10.8
2023-05-20T01:42:33.965Z,10.7
2023-05-20T01:47:30.557Z,10.7
2023-05-20T01:53:41.244Z,10.6
2023-05-20T01:58:38.047Z,10.6
2023-05-20T02:03:34.230Z,10.5
2023-05-20T02:06:02.554Z,10.5
2023-05-20T02:14:41.493Z,10.4
2023-05-20T02:19:38.249Z,10.5
2023-05-20T02:24:34.503Z,10.5
2023-05-20T02:29:31.139Z,10.5
2023-05-20T02:35:41.682Z,10.5
2023-05-20T02:40:38.248Z,10.6
2023-05-20T02:45:34.868Z,10.4
2023-05-20T02:50:31.266Z,10.4
2023-05-20T02:56:42.006Z,10.4
2023-05-20T03:01:38.637Z,10.2
2023-05-20T03:06:35.170Z,10.2
2023-05-20T03:11:31.573Z,10.3
2023-05-20T03:17:42.257Z,10.3
2023-05-20T03:22:38.755Z,10.3
2023-05-20T03:27:35.404Z,10.2
2023-05-20T03:32:31.879Z,10.2
2023-05-20T03:38:42.983Z,10.2
2023-05-20T03:43:39.242Z,10.1
2023-05-20T03:48:35.582Z,10.2
2023-05-20T03:53:32.241Z,10.1
2023-05-20T03:58:28.687Z,10.2
2023-05-20T04:04:39.328Z,10.2
2023-05-20T04:09:35.815Z,10.1
2023-05-20T04:14:33.826Z,10.4
2023-05-20T04:19:29.117Z,10.5
2023-05-20T04:30:36.072Z,10.9
2023-05-20T04:35:32.856Z,11.3
2023-05-20T04:41:43.270Z,11.3
2023-05-20T04:46:39.867Z,11.4
2023-05-20T04:51:36.447Z,11.6
2023-05-20T04:56:32.928Z,11.8
2023-05-20T05:01:29.707Z,12
2023-05-20T05:07:40.162Z,12.1
2023-05-20T05:12:36.691Z,12.1
2023-05-20T05:17:33.286Z,12.2
2023-05-20T05:22:29.690Z,12.3
2023-05-20T05:28:40.513Z,12.3
2023-05-20T05:33:36.895Z,12.6
2023-05-20T05:38:33.475Z,12.9
2023-05-20T05:43:30.030Z,13
2023-05-20T05:49:40.637Z,13
2023-05-20T05:54:37.139Z,13.6
2023-05-20T05:59:33.712Z,13.5
2023-05-20T06:04:30.269Z,13.3
2023-05-20T06:10:40.896Z,13.2
2023-05-20T06:15:37.637Z,13.4
2023-05-20T06:20:33.965Z,13.8
2023-05-20T06:25:30.480Z,13.6
2023-05-20T06:31:41.132Z,13.4
2023-05-20T06:36:37.752Z,13.7
2023-05-20T06:41:34.232Z,13.7
2023-05-20T06:46:31.086Z,13.6
2023-05-20T06:52:41.406Z,13.4
2023-05-20T06:57:37.984Z,13.4
2023-05-20T07:02:34.670Z,13.2
2023-05-20T07:07:31.012Z,13.2
2023-05-20T07:13:41.672Z,13.6
2023-05-20T07:18:38.528Z,13.7
2023-05-20T07:23:34.757Z,13.2
2023-05-20T07:28:31.297Z,13.3
2023-05-20T07:34:41.985Z,13.1
2023-05-20T07:35:56.275Z,13.4
2023-05-20T07:39:38.563Z,13.1
2023-05-20T07:44:35.058Z,13.5
2023-05-20T07:49:31.559Z,13.6
2023-05-20T07:55:42.208Z,13.2
2023-05-20T08:00:38.789Z,13.3
2023-05-20T08:05:35.684Z,12.8
2023-05-20T08:10:32.104Z,13.4
2023-05-20T08:20:33.130Z,13.2
2023-05-20T08:25:29.867Z,12.9
2023-05-20T08:31:40.504Z,13
2023-05-20T08:36:36.832Z,13
2023-05-20T08:41:33.372Z,13
2023-05-20T08:52:40.533Z,13.5
2023-05-20T08:57:37.252Z,12.6
2023-05-20T09:02:33.829Z,12.7
2023-05-20T09:07:30.224Z,12.6
2023-05-20T09:13:40.833Z,12.4
2023-05-20T09:18:37.473Z,12.3
2023-05-20T09:23:33.902Z,12
2023-05-20T09:28:30.420Z,12.4
2023-05-20T09:34:41.065Z,12.4
2023-05-20T09:39:37.680Z,12.3
2023-05-20T09:44:34.198Z,11.9
2023-05-20T09:49:30.672Z,11.7
2023-05-20T09:55:41.338Z,12
2023-05-20T10:00:37.909Z,12.4
2023-05-20T10:05:34.940Z,12.2
2023-05-20T10:10:31.064Z,12.4
2023-05-20T10:16:41.606Z,12
2023-05-20T10:21:38.382Z,12.1
2023-05-20T10:26:34.684Z,12.1
2023-05-20T10:31:31.233Z,12.2
2023-05-20T10:37:41.986Z,12.3
2023-05-20T10:42:38.448Z,12.8
2023-05-20T10:47:35.042Z,12.7
2023-05-20T10:52:31.574Z,12.3
2023-05-20T10:58:42.165Z,12.7
2023-05-20T11:03:38.856Z,13
2023-05-20T11:08:35.204Z,12.3
2023-05-20T11:13:31.893Z,12.7
2023-05-20T11:18:28.396Z,12.4
2023-05-20T11:24:39.060Z,11.9
2023-05-20T11:29:35.585Z,12.3
2023-05-20T11:34:32.030Z,12.2
2023-05-20T11:39:28.626Z,12.1
2023-05-20T11:45:39.319Z,12.4
2023-05-20T11:50:35.994Z,12.3
2023-05-20T11:55:32.317Z,12.6
2023-05-20T12:00:31.338Z,12.9
2023-05-20T12:06:39.571Z,12.9
2023-05-20T12:11:36.046Z,12.8
2023-05-20T12:16:32.819Z,12.8
2023-05-20T12:21:29.239Z,13.5
2023-05-20T12:27:39.854Z,12.3
2023-05-20T12:32:36.335Z,12.2
2023-05-20T12:37:34.424Z,11.9
2023-05-20T12:42:29.406Z,12
2023-05-20T12:48:42.497Z,12.3
2023-05-20T12:58:33.331Z,13
2023-05-20T13:01:01.387Z,13.4
2023-05-20T13:03:29.696Z,13.3
2023-05-20T13:09:40.346Z,14.4
2023-05-20T13:14:37.040Z,13.2
2023-05-20T13:19:33.457Z,12.5
2023-05-20T13:30:40.765Z,13.7
2023-05-20T13:35:37.221Z,13.8
2023-05-20T13:40:33.840Z,12.5
2023-05-20T13:45:30.221Z,12.9
2023-05-20T13:51:40.927Z,12.7
2023-05-20T13:56:37.529Z,12.1
2023-05-20T14:01:34.099Z,13.1
2023-05-20T14:06:30.463Z,12.3
2023-05-20T14:12:41.125Z,12.1
2023-05-20T14:17:37.744Z,12
2023-05-20T14:22:34.192Z,12.3
2023-05-20T14:27:30.708Z,11.8
2023-05-20T14:33:41.404Z,11.4
2023-05-20T14:38:38.111Z,11.6
2023-05-20T14:43:34.515Z,13
2023-05-20T14:48:31.083Z,11.5
2023-05-20T14:54:41.744Z,13.1
2023-05-20T14:59:38.336Z,13.3
2023-05-20T15:04:34.712Z,12.1
2023-05-20T15:09:31.295Z,11.2
2023-05-20T15:15:42.112Z,11
2023-05-20T15:20:38.711Z,11.3
2023-05-20T15:25:35.136Z,11
2023-05-20T15:30:31.657Z,11.3
2023-05-20T15:36:42.198Z,11.2
2023-05-20T15:41:40.489Z,11
2023-05-20T15:46:35.369Z,11.3
2023-05-20T15:51:31.803Z,11.2
2023-05-20T15:57:42.504Z,11.1
2023-05-20T16:02:39.110Z,10.9
2023-05-20T16:07:35.555Z,11.1
2023-05-20T16:12:32.194Z,11.4
2023-05-20T16:18:42.815Z,11.1
2023-05-20T16:23:39.312Z,11.7
2023-05-20T16:28:35.887Z,11.6
2023-05-20T16:33:32.502Z,11.6
2023-05-20T16:38:28.926Z,11.4
2023-05-20T16:44:39.673Z,11.5
2023-05-20T16:49:36.090Z,11.3
2023-05-20T16:54:32.696Z,11.7
2023-05-20T16:59:29.188Z,11.9
2023-05-20T17:05:39.850Z,12.2
2023-05-20T17:10:36.459Z,11.9
2023-05-20T17:15:33.150Z,11.7
2023-05-20T17:20:29.403Z,11.6
2023-05-20T17:26:40.134Z,12.1
2023-05-20T17:31:36.642Z,12
2023-05-20T17:36:33.141Z,12.2
2023-05-20T17:41:29.756Z,12.5
2023-05-20T17:47:40.362Z,12.6
2023-05-20T17:52:37.013Z,12.5
2023-05-20T17:57:33.423Z,12.3
2023-05-20T18:08:40.654Z,12.5
2023-05-20T18:13:37.256Z,12.5
2023-05-20T18:18:33.787Z,12.9
2023-05-20T18:23:30.209Z,12.8
2023-05-20T18:29:40.974Z,12.9
2023-05-20T18:34:38.491Z,13.3
2023-05-20T18:39:33.956Z,13.3
2023-05-20T18:44:30.488Z,13.6
2023-05-20T18:49:27.002Z,13.5
2023-05-20T18:50:41.242Z,13.8
2023-05-20T18:55:37.688Z,14.1
2023-05-20T19:00:34.449Z,14.5
2023-05-20T19:05:30.699Z,15.1
2023-05-20T19:11:41.368Z,15.1
2023-05-20T19:16:37.937Z,15.5
2023-05-20T19:21:34.501Z,15.7
2023-05-20T19:32:41.765Z,15.7
2023-05-20T19:37:38.277Z,15.5
2023-05-20T19:42:34.719Z,15.3
2023-05-20T19:47:31.373Z,15.2
2023-05-20T19:53:42.100Z,15.2
2023-05-20T19:58:38.473Z,15.2
2023-05-20T20:03:34.997Z,15.1
2023-05-20T20:08:31.541Z,15.2
2023-05-20T20:14:42.245Z,15.2
2023-05-20T20:19:38.827Z,15
2023-05-20T20:24:35.241Z,14.9
2023-05-20T20:29:31.792Z,14.8
2023-05-20T20:35:42.573Z,14.9
2023-05-20T20:39:33.154Z,14.8
2023-05-20T20:44:29.593Z,14.7
2023-05-20T20:50:40.240Z,14.3
2023-05-20T21:00:33.413Z,14.3
2023-05-20T21:05:29.961Z,14.2
2023-05-20T21:11:40.523Z,14.4
2023-05-20T21:16:37.111Z,14.3
2023-05-20T21:21:33.716Z,14.4
2023-05-20T21:26:30.163Z,14.3
2023-05-20T21:32:40.814Z,14.4
2023-05-20T21:37:37.448Z,14.5
2023-05-20T21:42:33.959Z,14.5
2023-05-20T21:47:30.408Z,14.3
2023-05-20T21:53:41.030Z,14.4
2023-05-20T21:58:37.660Z,14.3
2023-05-20T22:03:34.234Z,14.3
2023-05-20T22:08:30.714Z,14.2
2023-05-20T22:14:41.423Z,14.3
2023-05-20T22:19:37.905Z,14.1
2023-05-20T22:24:34.421Z,14.3
2023-05-20T22:29:30.964Z,14.3
2023-05-20T22:35:41.553Z,14.4
2023-05-20T22:40:38.097Z,14.1
2023-05-20T22:45:34.983Z,14.2
2023-05-20T22:50:31.164Z,14
2023-05-20T22:56:41.858Z,14.2
2023-05-20T23:01:38.496Z,14
2023-05-20T23:06:34.917Z,14.1
2023-05-20T23:11:31.440Z,13.9
2023-05-20T23:17:42.160Z,13.8
2023-05-20T23:22:39.017Z,13.9
2023-05-20T23:27:35.139Z,13.8
2023-05-20T23:32:31.804Z,13.8
2023-05-20T23:38:42.394Z,13.6
2023-05-20T23:43:38.957Z,13.7
2023-05-20T23:44:53.113Z,13.7
2023-05-20T23:48:35.457Z,13.8
2023-05-20T23:53:31.981Z,13.9
2023-05-20T23:58:28.713Z,13.8
